Time;durP1;ratioP1;P1;durP2;ratioP2;P2;SDS_P1;SDS_P2;PMS_P1;PMS_P2;Temp;Humidity;BMP_temperature;BMP_pressure;BME280_temperature;BME280_humidity;BME280_pressure;Samples;Min_cycle;Max_cycle;Signal;HPM_P1;HPM_P2
2023/05/03 00:01:42;;;;;;;4.80;2.92;;;15.60;86.60;;;;;;10740204;33;20024;-74
2023/05/03 00:07:45;;;;;;;7.43;2.42;;;15.50;86.50;;;;;;10750205;33;20021;-74
2023/05/03 00:13:48;;;;;;;2.83;2.15;;;15.60;86.50;;;;;;10752917;33;20319;-74
2023/05/03 00:19:54;;;;;;;4.53;3.08;;;15.50;86.40;;;;;;10751678;33;20343;-74
2023/05/03 00:25:57;;;;;;;2.12;1.40;;;15.50;86.50;;;;;;10733910;33;20045;-74
2023/05/03 00:32:00;;;;;;;3.05;1.70;;;15.50;86.50;;;;;;10752481;33;20012;-74
2023/05/03 00:38:02;;;;;;;1.73;1.00;;;15.50;86.50;;;;;;10752320;33;20403;-74
2023/05/03 00:44:04;;;;;;;3.45;1.80;;;15.50;86.50;;;;;;10751421;33;20016;-74
2023/05/03 00:50:08;;;;;;;1.00;0.80;;;15.50;86.40;;;;;;10735710;33;20025;-74
2023/05/03 00:56:10;;;;;;;1.08;0.73;;;15.50;86.50;;;;;;10735780;33;20021;-74
2023/05/03 01:02:12;;;;;;;2.95;1.67;;;15.50;86.40;;;;;;10725159;33;20111;-74
2023/05/03 01:08:19;;;;;;;2.47;1.25;;;15.50;86.40;;;;;;10724751;33;20036;-74
2023/05/03 01:14:24;;;;;;;0.70;0.70;;;15.50;86.40;;;;;;10736327;33;20025;-74
2023/05/03 01:20:29;;;;;;;0.57;0.57;;;15.50;86.40;;;;;;10751426;33;20016;-74
2023/05/03 01:26:32;;;;;;;1.60;1.23;;;15.40;86.30;;;;;;10751149;33;20448;-74
2023/05/03 01:33:12;;;;;;;2.47;1.17;;;15.40;86.30;;;;;;10750508;33;20024;-74
2023/05/03 01:39:29;;;;;;;1.62;1.02;;;15.40;86.30;;;;;;10750988;33;20047;-75
2023/05/03 01:45:30;;;;;;;0.80;0.80;;;15.30;86.30;;;;;;10746985;33;20024;-74
2023/05/03 01:51:32;;;;;;;4.32;1.60;;;15.30;86.30;;;;;;10750200;33;20016;-75
2023/05/03 01:57:35;;;;;;;1.98;1.30;;;15.30;86.40;;;;;;10752964;33;20016;-75
2023/05/03 02:03:37;;;;;;;1.50;1.35;;;15.30;86.40;;;;;;10755352;33;20331;-75
2023/05/03 02:09:39;;;;;;;1.45;1.30;;;15.30;86.50;;;;;;10753092;33;20075;-75
2023/05/03 02:15:40;;;;;;;1.52;1.42;;;15.30;86.60;;;;;;10756365;33;20020;-75
2023/05/03 02:21:45;;;;;;;1.55;1.15;;;15.30;86.60;;;;;;10755605;33;20441;-75
2023/05/03 02:27:48;;;;;;;2.37;1.42;;;15.30;86.60;;;;;;10755181;33;20043;-75
2023/05/03 02:33:50;;;;;;;3.62;2.40;;;15.30;86.60;;;;;;10754553;33;20025;-75
2023/05/03 02:39:52;;;;;;;1.77;1.40;;;15.30;86.50;;;;;;10753707;33;20047;-75
2023/05/03 02:45:54;;;;;;;1.40;0.80;;;15.20;86.50;;;;;;10754808;33;20028;-75
2023/05/03 02:51:56;;;;;;;1.50;0.82;;;15.20;86.50;;;;;;10754761;33;20047;-75
2023/05/03 02:57:59;;;;;;;1.30;1.10;;;15.20;86.50;;;;;;10741528;33;20057;-75
2023/05/03 03:04:01;;;;;;;1.48;1.23;;;15.10;86.40;;;;;;10739993;33;20036;-75
2023/05/03 03:10:06;;;;;;;1.02;0.90;;;15.10;86.40;;;;;;10753183;33;20295;-75
2023/05/03 03:16:09;;;;;;;1.08;0.93;;;15.10;86.40;;;;;;10753473;33;20056;-74
2023/05/03 03:22:11;;;;;;;1.12;1.00;;;15.10;86.40;;;;;;10752685;33;20339;-74
2023/05/03 03:28:13;;;;;;;1.50;0.75;;;15.00;86.40;;;;;;10753171;33;20024;-74
2023/05/03 03:34:16;;;;;;;1.10;0.68;;;15.10;86.30;;;;;;10752877;33;20020;-74
2023/05/03 03:40:18;;;;;;;1.00;0.82;;;15.10;86.30;;;;;;10740269;33;20013;-75
2023/05/03 03:46:20;;;;;;;0.98;0.80;;;15.10;86.30;;;;;;10736129;32;20044;-75
2023/05/03 03:52:23;;;;;;;0.80;0.80;;;15.00;86.20;;;;;;10749578;33;20066;-75
2023/05/03 03:58:28;;;;;;;1.60;0.93;;;14.90;86.20;;;;;;10752783;33;20017;-76
2023/05/03 04:04:35;;;;;;;1.27;0.82;;;15.00;86.30;;;;;;10748254;33;20028;-74
2023/05/03 04:10:38;;;;;;;1.00;0.52;;;15.00;86.30;;;;;;10738878;33;20016;-74
2023/05/03 04:16:40;;;;;;;0.80;0.80;;;15.00;86.30;;;;;;10748499;33;20028;-74
2023/05/03 04:22:42;;;;;;;1.85;1.33;;;15.00;86.20;;;;;;10751466;33;20016;-74
2023/05/03 04:28:45;;;;;;;0.93;0.80;;;15.00;86.20;;;;;;10739671;33;20021;-75
2023/05/03 04:34:49;;;;;;;2.20;0.85;;;15.00;86.20;;;;;;10753111;33;20044;-75
2023/05/03 04:40:53;;;;;;;1.27;0.65;;;15.00;86.20;;;;;;10738860;33;20047;-74
2023/05/03 04:46:56;;;;;;;1.10;1.00;;;15.00;86.20;;;;;;10751097;33;20051;-75
2023/05/03 04:53:00;;;;;;;1.75;1.27;;;15.00;86.20;;;;;;10751371;33;20048;-75
2023/05/03 04:59:04;;;;;;;1.77;1.30;;;15.00;86.20;;;;;;10747415;33;20024;-74
2023/05/03 05:05:08;;;;;;;1.60;1.27;;;15.10;86.30;;;;;;10750665;33;20051;-74
2023/05/03 05:11:12;;;;;;;1.87;1.45;;;15.10;86.20;;;;;;10750506;33;20330;-74
2023/05/03 05:17:16;;;;;;;4.22;1.83;;;15.20;86.10;;;;;;10750294;33;20167;-74
2023/05/03 05:23:18;;;;;;;3.47;2.03;;;15.10;86.20;;;;;;10750528;33;20052;-74
2023/05/03 05:29:21;;;;;;;1.50;1.25;;;15.20;86.10;;;;;;10752952;33;20034;-74
2023/05/03 05:35:23;;;;;;;2.40;1.75;;;15.20;86.10;;;;;;10753137;33;20020;-75
2023/05/03 05:41:25;;;;;;;4.03;1.83;;;15.20;86.10;;;;;;10742932;33;20334;-74
2023/05/03 05:47:28;;;;;;;1.30;1.15;;;15.20;86.10;;;;;;10756508;33;20288;-74
2023/05/03 05:53:31;;;;;;;2.72;2.25;;;15.20;86.10;;;;;;10756044;33;20044;-74
2023/05/03 05:59:34;;;;;;;2.65;1.87;;;15.20;86.20;;;;;;10742106;33;20064;-73
2023/05/03 06:05:36;;;;;;;2.55;1.55;;;15.20;86.30;;;;;;10752047;33;20028;-74
2023/05/03 06:11:42;;;;;;;2.42;1.80;;;15.20;86.30;;;;;;10738299;33;20277;-74
2023/05/03 06:17:45;;;;;;;5.22;2.05;;;15.20;86.20;;;;;;10753508;33;20059;-74
2023/05/03 06:23:47;;;;;;;2.50;1.65;;;15.20;86.20;;;;;;10754020;33;20025;-74
2023/05/03 06:29:52;;;;;;;1.35;1.12;;;15.30;86.20;;;;;;10755709;33;20017;-74
2023/05/03 06:35:57;;;;;;;3.03;1.40;;;15.40;86.10;;;;;;10755707;33;20452;-74
2023/05/03 06:42:01;;;;;;;1.77;1.48;;;15.50;86.00;;;;;;10755641;33;20028;-74
2023/05/03 06:48:07;;;;;;;2.75;1.70;;;15.50;85.90;;;;;;10755288;33;20046;-75
2023/05/03 06:54:09;;;;;;;1.45;1.12;;;15.60;85.70;;;;;;10753605;33;20017;-74
2023/05/03 07:00:12;;;;;;;2.37;1.87;;;15.60;85.70;;;;;;10752755;33;20017;-74
2023/05/03 07:06:18;;;;;;;1.98;1.30;;;15.60;85.70;;;;;;10752897;33;20028;-75
2023/05/03 07:12:26;;;;;;;1.92;1.62;;;15.70;85.60;;;;;;10751477;33;20039;-75
2023/05/03 07:18:32;;;;;;;2.70;1.30;;;15.80;85.60;;;;;;10754390;33;20016;-75
2023/05/03 07:24:35;;;;;;;2.62;1.50;;;15.90;85.40;;;;;;10753354;33;20021;-74
2023/05/03 07:30:42;;;;;;;4.72;2.50;;;16.00;85.20;;;;;;10754245;33;20043;-75
2023/05/03 07:36:44;;;;;;;2.08;1.52;;;16.10;85.10;;;;;;10749562;33;20378;-74
2023/05/03 07:42:46;;;;;;;5.85;2.20;;;16.20;85.00;;;;;;10741501;33;20029;-74
2023/05/03 07:48:48;;;;;;;2.40;1.27;;;16.40;84.90;;;;;;10753066;33;20017;-75
2023/05/03 07:54:52;;;;;;;2.78;1.37;;;16.60;84.50;;;;;;10753044;27;20058;-75
2023/05/03 08:00:54;;;;;;;2.78;2.05;;;16.70;84.50;;;;;;10738946;33;20359;-74
2023/05/03 08:07:01;;;;;;;2.85;1.85;;;16.70;84.40;;;;;;10753011;33;20021;-75
2023/05/03 08:13:07;;;;;;;1.83;1.02;;;16.80;84.40;;;;;;10748811;33;20445;-75
2023/05/03 08:19:09;;;;;;;1.98;1.67;;;17.00;84.20;;;;;;10737736;33;20028;-75
2023/05/03 08:25:11;;;;;;;2.90;1.60;;;17.00;83.90;;;;;;10751372;33;20065;-75
2023/05/03 08:31:13;;;;;;;2.12;1.73;;;17.20;83.70;;;;;;10749917;33;20025;-74
2023/05/03 08:37:15;;;;;;;2.60;1.45;;;17.30;83.20;;;;;;10752134;33;20055;-74
2023/05/03 08:43:20;;;;;;;4.00;2.08;;;17.50;82.90;;;;;;10751133;33;20020;-74
2023/05/03 08:49:23;;;;;;;2.72;1.60;;;17.70;82.70;;;;;;10738100;33;20055;-75
2023/05/03 08:55:25;;;;;;;2.58;1.60;;;17.80;82.40;;;;;;10736609;33;20036;-75
2023/05/03 09:01:27;;;;;;;1.20;1.10;;;17.80;82.30;;;;;;10738331;33;20028;-75
2023/05/03 09:07:29;;;;;;;1.27;1.17;;;17.80;82.20;;;;;;10756947;33;20055;-74
2023/05/03 09:13:32;;;;;;;2.00;1.10;;;17.80;82.00;;;;;;10731887;33;20041;-75
2023/05/03 09:19:51;;;;;;;1.48;1.15;;;17.80;81.50;;;;;;10758173;33;20417;-75
2023/05/03 09:25:53;;;;;;;4.45;1.60;;;17.80;81.30;;;;;;10757588;33;20029;-74
2023/05/03 09:32:00;;;;;;;1.83;1.02;;;17.80;81.00;;;;;;10757214;33;20021;-76
2023/05/03 09:38:03;;;;;;;1.65;0.98;;;17.90;80.80;;;;;;10742885;33;20051;-75
2023/05/03 09:44:05;;;;;;;1.15;0.98;;;18.00;80.70;;;;;;10753247;33;20311;-75
2023/05/03 09:50:08;;;;;;;1.40;1.20;;;18.00;80.50;;;;;;10743758;33;20418;-76
2023/05/03 09:56:13;;;;;;;2.45;1.48;;;18.10;80.10;;;;;;10744248;33;20082;-76
2023/05/03 10:02:16;;;;;;;1.77;1.05;;;18.10;79.90;;;;;;10755648;33;20055;-76
2023/05/03 10:08:36;;;;;;;2.10;1.25;;;18.10;79.40;;;;;;10744084;33;20018;-74
2023/05/03 10:14:46;;;;;;;2.80;1.58;;;18.10;78.70;;;;;;10751421;33;20094;-74
2023/05/03 10:20:54;;;;;;;1.17;0.90;;;18.20;78.40;;;;;;10742188;33;20059;-75
2023/05/03 10:26:56;;;;;;;1.40;1.10;;;18.20;78.00;;;;;;10755260;33;20032;-74
2023/05/03 10:33:19;;;;;;;0.75;0.75;;;18.20;77.30;;;;;;10740319;33;20058;-74
2023/05/03 10:39:22;;;;;;;1.15;1.02;;;18.30;76.60;;;;;;10754356;33;20025;-76
2023/05/03 10:45:28;;;;;;;1.52;1.20;;;18.50;76.40;;;;;;10752126;33;20055;-75
2023/05/03 10:51:37;;;;;;;0.90;0.90;;;18.80;75.90;;;;;;10752214;33;20075;-75
2023/05/03 10:57:45;;;;;;;1.05;0.98;;;19.10;75.10;;;;;;10753778;33;20335;-75
2023/05/03 11:03:47;;;;;;;2.23;1.00;;;19.50;74.30;;;;;;10753184;33;20440;-74
2023/05/03 11:09:49;;;;;;;1.55;1.30;;;19.60;74.30;;;;;;10745036;33;20025;-77
2023/05/03 11:15:55;;;;;;;4.03;1.42;;;19.70;74.40;;;;;;10746758;33;20051;-75
2023/05/03 11:21:57;;;;;;;1.48;1.10;;;19.70;73.30;;;;;;10751228;33;20437;-74
2023/05/03 11:28:00;;;;;;;3.17;1.10;;;19.70;74.30;;;;;;10753299;33;20047;-77
2023/05/03 11:34:04;;;;;;;0.55;0.55;;;19.80;73.70;;;;;;10753635;33;20058;-75
2023/05/03 11:40:42;;;;;;;0.85;0.57;;;19.80;74.10;;;;;;10713495;33;20047;-75
2023/05/03 11:46:45;;;;;;;0.62;0.62;;;19.90;73.00;;;;;;10712017;33;20071;-73
2023/05/03 11:52:47;;;;;;;0.45;0.45;;;20.10;71.80;;;;;;10710031;33;20029;-73
2023/05/03 11:58:53;;;;;;;1.02;0.75;;;20.20;71.20;;;;;;10713302;33;20446;-74
2023/05/03 12:04:55;;;;;;;0.68;0.68;;;20.30;70.70;;;;;;10700270;33;20032;-74
2023/05/03 12:11:00;;;;;;;0.68;0.60;;;20.20;70.00;;;;;;10732681;32;20032;-77
2023/05/03 12:17:03;;;;;;;1.37;0.90;;;20.20;69.90;;;;;;10750466;33;20009;-71
2023/05/03 12:23:07;;;;;;;1.20;0.60;;;20.20;69.40;;;;;;10751752;33;20047;-73
2023/05/03 12:29:10;;;;;;;0.50;0.50;;;20.30;68.60;;;;;;10752046;33;20162;-74
2023/05/03 12:35:15;;;;;;;0.95;0.60;;;20.50;67.90;;;;;;10751600;33;20417;-75
2023/05/03 12:41:18;;;;;;;0.60;0.60;;;20.40;69.70;;;;;;10748339;33;20025;-77
2023/05/03 12:47:23;;;;;;;2.17;0.90;;;20.30;68.70;;;;;;10751196;32;20028;-73
2023/05/03 12:53:28;;;;;;;2.33;0.60;;;20.30;70.90;;;;;;10750990;33;20043;-74
2023/05/03 12:59:36;;;;;;;1.95;0.70;;;20.30;70.90;;;;;;10748063;33;20028;-78
2023/05/03 13:05:41;;;;;;;0.43;0.43;;;20.40;70.50;;;;;;10747796;33;20421;-75
2023/05/03 13:11:45;;;;;;;1.30;0.90;;;20.50;68.90;;;;;;10749657;33;20068;-74
2023/05/03 13:18:00;;;;;;;0.50;0.50;;;20.50;69.40;;;;;;10751621;33;20311;-75
2023/05/03 13:24:02;;;;;;;2.40;0.70;;;20.50;68.50;;;;;;10751295;33;20050;-75
2023/05/03 13:30:07;;;;;;;0.70;0.62;;;20.60;68.40;;;;;;10746944;33;20395;-76
2023/05/03 13:36:10;;;;;;;0.90;0.90;;;20.60;67.80;;;;;;10750605;33;20331;-76
2023/05/03 13:42:19;;;;;;;1.48;0.98;;;20.70;69.90;;;;;;10746502;33;20047;-73
2023/05/03 13:48:23;;;;;;;1.12;1.02;;;20.80;69.30;;;;;;10749830;33;20044;-76
2023/05/03 13:54:26;;;;;;;0.77;0.70;;;20.80;70.40;;;;;;10754859;33;20043;-76
2023/05/03 14:00:33;;;;;;;1.02;0.93;;;20.80;69.40;;;;;;10757436;33;20051;-74
2023/05/03 14:06:38;;;;;;;0.95;0.70;;;20.90;68.70;;;;;;10804468;32;20024;-73
2023/05/03 14:12:53;;;;;;;0.68;0.68;;;21.00;67.30;;;;;;10741342;32;20495;-73
2023/05/03 14:19:02;;;;;;;0.65;0.65;;;21.10;68.30;;;;;;10748492;33;20043;-74
2023/05/03 14:25:08;;;;;;;1.05;0.80;;;21.10;68.90;;;;;;10747158;33;20402;-74
2023/05/03 14:31:15;;;;;;;0.65;0.65;;;21.10;67.60;;;;;;10741385;33;20028;-74
2023/05/03 14:37:17;;;;;;;0.50;0.50;;;21.10;67.40;;;;;;10755262;33;20391;-74
2023/05/03 14:43:23;;;;;;;1.00;0.85;;;21.10;66.50;;;;;;10753924;33;20319;-76
2023/05/03 14:49:26;;;;;;;0.47;0.47;;;21.20;67.60;;;;;;10742139;33;20024;-73
2023/05/03 14:55:29;;;;;;;1.42;0.77;;;21.20;68.00;;;;;;10752349;33;20387;-74
2023/05/03 15:01:31;;;;;;;0.65;0.45;;;21.30;66.90;;;;;;10753835;33;20381;-74
2023/05/03 15:07:33;;;;;;;1.30;0.90;;;21.30;66.90;;;;;;10754106;33;20016;-74
2023/05/03 15:13:35;;;;;;;2.85;1.50;;;21.40;67.30;;;;;;10760003;33;20052;-73
2023/05/03 15:19:46;;;;;;;5.60;1.17;;;21.50;66.50;;;;;;10656648;33;20033;-73
2023/05/03 15:25:57;;;;;;;0.73;0.70;;;21.70;66.30;;;;;;10655394;33;20076;-75
2023/05/03 15:32:01;;;;;;;0.77;0.75;;;21.80;67.80;;;;;;10640609;33;20468;-73
2023/05/03 15:38:03;;;;;;;0.68;0.62;;;21.80;65.30;;;;;;10640843;33;20033;-74
2023/05/03 15:44:07;;;;;;;5.25;0.93;;;21.80;65.60;;;;;;10628070;33;20068;-74
2023/05/03 15:50:09;;;;;;;0.77;0.73;;;21.90;64.60;;;;;;10513859;27;7119108;-74
2023/05/03 15:56:11;;;;;;;1.62;0.88;;;22.10;63.70;;;;;;10753039;33;20205;-75
2023/05/03 16:02:13;;;;;;;0.82;0.55;;;22.20;62.90;;;;;;10738538;33;20342;-75
2023/05/03 16:08:15;;;;;;;0.82;0.77;;;22.10;62.80;;;;;;10855309;32;20057;-74
2023/05/03 16:14:18;;;;;;;2.95;0.82;;;22.10;62.60;;;;;;10771558;32;20029;-73
2023/05/03 16:20:20;;;;;;;0.50;0.47;;;22.10;62.60;;;;;;10753560;33;20020;-74
2023/05/03 16:26:22;;;;;;;0.55;0.52;;;22.10;62.50;;;;;;10873140;32;20059;-74
2023/05/03 16:32:25;;;;;;;1.37;0.70;;;22.10;64.50;;;;;;10709936;33;20032;-75
2023/05/03 16:38:29;;;;;;;0.60;0.57;;;22.00;64.40;;;;;;10814859;32;20030;-74
2023/05/03 16:44:31;;;;;;;0.75;0.65;;;22.00;65.20;;;;;;10861135;32;20067;-74
2023/05/03 16:50:33;;;;;;;0.68;0.45;;;22.10;65.00;;;;;;10815472;32;20045;-75
2023/05/03 16:56:36;;;;;;;1.50;0.95;;;22.00;64.80;;;;;;10823253;32;20326;-74
2023/05/03 17:02:39;;;;;;;0.88;0.80;;;21.80;64.10;;;;;;10702096;33;20429;-76
2023/05/03 17:08:42;;;;;;;0.52;0.52;;;21.90;63.70;;;;;;10715617;33;20048;-73
2023/05/03 17:14:44;;;;;;;1.50;0.80;;;22.00;62.50;;;;;;10712757;33;20017;-75
2023/05/03 17:20:46;;;;;;;1.27;0.93;;;22.40;62.60;;;;;;10709411;33;20033;-76
2023/05/03 17:26:49;;;;;;;0.98;0.85;;;23.50;63.30;;;;;;10725972;33;20036;-75
2023/05/03 17:32:51;;;;;;;1.17;0.60;;;23.30;63.10;;;;;;10830255;32;20030;-74
2023/05/03 17:38:53;;;;;;;0.50;0.50;;;22.30;64.40;;;;;;10950114;32;20022;-75
2023/05/03 17:44:55;;;;;;;0.50;0.50;;;21.80;65.90;;;;;;10911144;32;20033;-76
2023/05/03 17:50:57;;;;;;;0.75;0.60;;;21.50;66.50;;;;;;10729455;33;20414;-76
2023/05/03 17:57:00;;;;;;;4.15;1.00;;;21.30;67.20;;;;;;10720730;33;20398;-77
2023/05/03 18:03:03;;;;;;;1.15;0.60;;;21.90;65.90;;;;;;10725374;33;20050;-75
2023/05/03 18:09:06;;;;;;;0.70;0.70;;;21.80;65.80;;;;;;10748259;33;20021;-77
2023/05/03 18:15:09;;;;;;;15.38;2.95;;;21.20;67.10;;;;;;10719471;33;20017;-75
2023/05/03 18:21:12;;;;;;;7.55;1.45;;;20.80;67.70;;;;;;10719869;33;20056;-77
2023/05/03 18:27:14;;;;;;;2.08;1.20;;;20.50;68.30;;;;;;10707343;33;20371;-77
2023/05/03 18:33:17;;;;;;;1.73;0.60;;;20.20;68.90;;;;;;10718777;33;20040;-76
2023/05/03 18:39:21;;;;;;;2.10;0.93;;;20.10;69.40;;;;;;10718700;33;20292;-76
2023/05/03 18:45:24;;;;;;;3.17;0.70;;;20.00;69.90;;;;;;10738128;33;20025;-76
2023/05/03 18:51:26;;;;;;;1.00;0.70;;;19.90;70.30;;;;;;10754681;33;20047;-76
2023/05/03 18:57:28;;;;;;;0.60;0.60;;;19.70;70.60;;;;;;10741599;32;20032;-76
2023/05/03 19:03:30;;;;;;;0.60;0.60;;;19.60;71.00;;;;;;10754496;33;20020;-76
2023/05/03 19:09:32;;;;;;;0.70;0.70;;;19.50;71.40;;;;;;10754604;33;20051;-76
2023/05/03 19:15:36;;;;;;;1.30;0.85;;;19.50;71.70;;;;;;10752278;33;20424;-76
2023/05/03 19:21:41;;;;;;;1.45;0.70;;;19.40;71.90;;;;;;10754476;33;20029;-76
2023/05/03 19:27:43;;;;;;;0.77;0.70;;;19.30;72.20;;;;;;10754124;32;20048;-76
2023/05/03 19:33:45;;;;;;;1.42;1.10;;;19.20;72.40;;;;;;10753909;33;20024;-76
2023/05/03 19:39:47;;;;;;;1.58;1.15;;;19.20;72.70;;;;;;10752730;33;20043;-76
2023/05/03 19:45:50;;;;;;;1.62;1.05;;;19.00;72.90;;;;;;10751684;33;20051;-76
2023/05/03 19:51:52;;;;;;;0.90;0.80;;;19.00;73.20;;;;;;10752151;33;20056;-76
2023/05/03 19:57:55;;;;;;;2.12;1.25;;;18.80;73.60;;;;;;10752369;33;20350;-75
2023/05/03 20:03:57;;;;;;;1.17;1.00;;;18.80;73.80;;;;;;10751937;33;20055;-75
2023/05/03 20:09:59;;;;;;;1.65;1.05;;;18.80;73.90;;;;;;10751550;33;20021;-76
2023/05/03 20:16:06;;;;;;;1.48;1.05;;;18.80;74.00;;;;;;10751632;33;20194;-76
2023/05/03 20:22:09;;;;;;;1.92;1.10;;;18.80;74.20;;;;;;10751454;33;20394;-76
2023/05/03 20:28:11;;;;;;;1.10;0.90;;;18.70;74.50;;;;;;10737878;33;20055;-75
2023/05/03 20:34:14;;;;;;;2.10;1.20;;;18.70;74.70;;;;;;10737704;33;20048;-75
2023/05/03 20:40:16;;;;;;;1.40;1.20;;;18.60;74.80;;;;;;10751144;33;20021;-76
2023/05/03 20:46:18;;;;;;;2.00;1.10;;;18.60;75.00;;;;;;10738340;32;20398;-76
2023/05/03 20:52:20;;;;;;;2.80;1.73;;;18.50;75.20;;;;;;10737874;33;20039;-76
2023/05/03 20:58:22;;;;;;;1.30;1.02;;;18.40;75.20;;;;;;10750672;33;20075;-75
2023/05/03 21:04:25;;;;;;;1.37;1.10;;;18.30;75.40;;;;;;10762707;33;20047;-75
2023/05/03 21:10:27;;;;;;;1.40;1.20;;;18.30;75.80;;;;;;10749747;33;20028;-76
2023/05/03 21:16:30;;;;;;;2.15;1.08;;;18.30;76.10;;;;;;10762439;33;20021;-76
2023/05/03 21:22:32;;;;;;;1.20;1.10;;;18.20;76.20;;;;;;10762295;33;20025;-75
2023/05/03 21:28:34;;;;;;;2.25;1.55;;;18.20;76.40;;;;;;10749152;33;20051;-75
2023/05/03 21:34:36;;;;;;;1.10;1.00;;;18.20;76.20;;;;;;10749741;33;20043;-76
2023/05/03 21:40:38;;;;;;;1.98;1.45;;;18.10;76.20;;;;;;10736529;33;20047;-75
2023/05/03 21:46:41;;;;;;;1.23;1.12;;;18.10;76.60;;;;;;10761953;33;20029;-76
2023/05/03 21:52:43;;;;;;;1.17;1.08;;;18.00;76.80;;;;;;10761676;33;20017;-75
2023/05/03 21:58:45;;;;;;;2.50;1.55;;;18.00;76.90;;;;;;10761609;33;20386;-76
2023/05/03 22:04:48;;;;;;;2.37;1.65;;;17.90;76.90;;;;;;10743692;33;20036;-76
2023/05/03 22:10:51;;;;;;;1.73;1.55;;;17.90;77.00;;;;;;10757781;33;20021;-76
2023/05/03 22:16:53;;;;;;;2.78;1.65;;;17.80;77.00;;;;;;10741718;33;20442;-76
2023/05/03 22:22:58;;;;;;;3.40;1.90;;;17.80;77.10;;;;;;10751250;33;20033;-76
2023/05/03 22:29:00;;;;;;;1.40;1.30;;;17.80;77.30;;;;;;10754905;33;20024;-76
2023/05/03 22:35:03;;;;;;;1.52;1.30;;;17.70;77.20;;;;;;10754565;33;20438;-76
2023/05/03 22:41:05;;;;;;;1.83;1.58;;;17.70;77.40;;;;;;10754439;33;20013;-76
2023/05/03 22:47:08;;;;;;;2.40;1.58;;;17.60;77.70;;;;;;10726684;33;20032;-76
2023/05/03 22:53:10;;;;;;;3.37;2.20;;;17.50;77.90;;;;;;10754080;33;20021;-76
2023/05/03 22:59:12;;;;;;;1.92;1.75;;;17.50;77.90;;;;;;10753888;33;20044;-76
2023/05/03 23:05:14;;;;;;;2.72;1.70;;;17.50;78.30;;;;;;10753854;33;20013;-76
2023/05/03 23:11:16;;;;;;;2.40;1.67;;;17.50;78.40;;;;;;10737493;33;20036;-76
2023/05/03 23:17:19;;;;;;;1.70;1.50;;;17.40;78.20;;;;;;10739943;33;20051;-76
2023/05/03 23:23:20;;;;;;;1.98;1.45;;;17.50;78.40;;;;;;10752301;33;20024;-76
2023/05/03 23:29:23;;;;;;;3.65;1.75;;;17.40;78.70;;;;;;10753168;33;20083;-76
2023/05/03 23:35:25;;;;;;;2.87;1.75;;;17.30;79.00;;;;;;10750741;33;20020;-76
2023/05/03 23:41:27;;;;;;;3.28;2.37;;;17.30;79.10;;;;;;10752772;33;20008;-76
2023/05/03 23:47:28;;;;;;;2.50;1.77;;;17.30;79.30;;;;;;10752591;33;20021;-76
2023/05/03 23:53:30;;;;;;;4.45;1.98;;;17.20;79.20;;;;;;10754104;27;20070;-76
2023/05/03 23:59:32;;;;;;;2.03;1.67;;;17.20;79.00;;;;;;10741101;33;20511;-76
